createdAt,value
2022-12-04T00:01:28.080Z,3.03
2022-12-04T00:03:57.314Z,3.24
2022-12-04T00:06:26.045Z,2.83
2022-12-04T00:08:55.438Z,3.25
2022-12-04T00:11:27.471Z,3.27
2022-12-04T00:13:57.384Z,3.16
2022-12-04T00:16:30.627Z,3.07
2022-12-04T00:18:59.693Z,3.30
2022-12-04T00:21:27.854Z,3.32
2022-12-04T00:23:56.093Z,3.28
2022-12-04T00:26:29.183Z,3.31
2022-12-04T00:28:59.020Z,3.37
2022-12-04T00:31:30.485Z,3.36
2022-12-04T00:33:58.709Z,3.37
2022-12-04T00:36:29.277Z,3.34
2022-12-04T00:38:59.601Z,3.32
2022-12-04T00:41:31.976Z,3.38
2022-12-04T00:44:00.343Z,3.43
2022-12-04T00:46:28.875Z,3.37
2022-12-04T00:48:57.289Z,3.34
2022-12-04T00:51:26.945Z,3.42
2022-12-04T00:53:55.517Z,3.53
2022-12-04T00:56:25.518Z,3.57
2022-12-04T00:58:56.047Z,3.48
2022-12-04T01:01:25.515Z,3.44
2022-12-04T01:03:55.332Z,2.83
2022-12-04T01:06:26.671Z,3.32
2022-12-04T01:08:56.220Z,3.41
2022-12-04T01:11:26.486Z,3.46
2022-12-04T01:13:56.477Z,3.51
2022-12-04T01:16:27.976Z,2.67
2022-12-04T01:18:56.488Z,2.35
2022-12-04T01:21:24.615Z,3.19
2022-12-04T01:23:53.057Z,3.33
2022-12-04T01:26:21.400Z,2.98
2022-12-04T01:28:49.525Z,3.30
2022-12-04T01:31:21.147Z,3.25
2022-12-04T01:33:50.754Z,3.23
2022-12-04T01:36:21.714Z,3.24
2022-12-04T01:38:50.342Z,3.24
2022-12-04T01:41:20.120Z,3.29
2022-12-04T01:44:13.280Z,3.17
2022-12-04T01:46:43.920Z,3.24
2022-12-04T01:49:15.877Z,2.79
2022-12-04T01:51:47.442Z,3.29
2022-12-04T01:54:20.338Z,3.33
2022-12-04T01:56:54.185Z,3.39
2022-12-04T01:59:25.572Z,3.39
2022-12-04T02:02:01.071Z,3.38
2022-12-04T02:04:29.946Z,3.36
2022-12-04T02:06:58.067Z,3.27
2022-12-04T02:09:27.211Z,3.32
2022-12-04T02:12:02.995Z,3.28
2022-12-04T02:14:36.479Z,3.28
2022-12-04T02:17:17.862Z,3.10
2022-12-04T02:20:16.716Z,3.30
2022-12-04T02:23:26.254Z,3.32
2022-12-04T02:26:03.022Z,3.32
2022-12-04T02:28:41.996Z,3.38
2022-12-04T02:31:19.890Z,3.37
2022-12-04T02:33:54.780Z,2.55
2022-12-04T02:36:25.399Z,3.29
2022-12-04T02:39:00.125Z,3.25
2022-12-04T02:41:35.635Z,3.37
2022-12-04T02:44:10.570Z,3.37
2022-12-04T02:46:43.394Z,3.24
2022-12-04T02:49:16.363Z,3.38
2022-12-04T02:51:46.422Z,3.34
2022-12-04T02:54:22.260Z,3.32
2022-12-04T02:56:53.055Z,3.31
2022-12-04T02:59:28.550Z,3.27
2022-12-04T03:02:01.323Z,3.51
2022-12-04T03:04:32.063Z,3.32
2022-12-04T03:07:05.399Z,3.29
2022-12-04T03:09:38.002Z,3.39
2022-12-04T03:12:12.129Z,3.25
2022-12-04T03:14:45.353Z,3.33
2022-12-04T03:17:19.912Z,3.34
2022-12-04T03:19:53.889Z,3.14
2022-12-04T03:22:23.939Z,3.38
2022-12-04T03:24:54.177Z,3.41
2022-12-04T03:27:30.165Z,3.24
2022-12-04T03:30:04.670Z,3.33
2022-12-04T03:32:37.580Z,3.34
2022-12-04T03:35:09.497Z,3.47
2022-12-04T03:37:42.264Z,3.50
2022-12-04T03:40:20.849Z,3.46
2022-12-04T03:42:54.289Z,3.46
2022-12-04T03:45:27.565Z,3.44
2022-12-04T03:48:03.035Z,3.52
2022-12-04T03:50:39.326Z,3.54
2022-12-04T03:53:16.469Z,3.47
2022-12-04T03:55:49.651Z,3.38
2022-12-04T03:58:23.035Z,3.48
2022-12-04T04:00:55.349Z,3.53
2022-12-04T04:03:28.650Z,3.51
2022-12-04T04:06:02.978Z,3.44
2022-12-04T04:08:36.308Z,2.41
2022-12-04T04:11:14.239Z,3.18
2022-12-04T04:14:05.330Z,2.43
2022-12-04T04:16:55.593Z,3.29
2022-12-04T04:19:43.328Z,3.34
2022-12-04T04:22:29.381Z,3.31
2022-12-04T04:25:04.518Z,3.31
2022-12-04T04:27:33.429Z,3.28
2022-12-04T04:30:02.209Z,3.32
2022-12-04T04:32:41.959Z,3.35
2022-12-04T04:35:20.799Z,3.25
2022-12-04T04:37:58.150Z,2.52
2022-12-04T04:40:34.528Z,3.28
2022-12-04T04:43:07.662Z,3.18
2022-12-04T04:45:41.108Z,3.39
2022-12-04T04:48:15.921Z,3.07
2022-12-04T04:50:46.559Z,3.34
2022-12-04T04:53:19.950Z,3.29
2022-12-04T04:55:49.580Z,3.39
2022-12-04T04:58:20.179Z,3.24
2022-12-04T05:00:58.383Z,3.34
2022-12-04T05:03:29.303Z,3.50
2022-12-04T05:05:58.369Z,3.47
2022-12-04T05:08:27.119Z,3.41
2022-12-04T05:10:55.879Z,2.92
2022-12-04T05:13:24.948Z,2.30
2022-12-04T05:16:04.297Z,3.39
2022-12-04T05:18:35.438Z,3.24
2022-12-04T05:21:06.723Z,3.28
2022-12-04T05:23:35.299Z,3.26
2022-12-04T05:26:05.299Z,3.01
2022-12-04T05:28:34.059Z,3.29
2022-12-04T05:31:05.291Z,3.31
2022-12-04T05:33:35.311Z,3.20
2022-12-04T05:36:05.849Z,3.34
2022-12-04T05:38:34.838Z,3.28
2022-12-04T05:41:05.239Z,3.50
2022-12-04T05:43:34.287Z,3.45
2022-12-04T05:46:04.016Z,3.39
2022-12-04T05:48:33.040Z,3.27
2022-12-04T05:51:06.535Z,3.39
2022-12-04T05:53:35.170Z,3.30
2022-12-04T05:56:05.619Z,3.49
2022-12-04T05:58:36.591Z,3.50
2022-12-04T06:01:13.264Z,3.48
2022-12-04T06:03:42.019Z,3.49
2022-12-04T06:06:21.028Z,3.45
2022-12-04T06:08:51.312Z,3.38
2022-12-04T06:11:22.269Z,3.31
2022-12-04T06:13:50.954Z,3.18
2022-12-04T06:16:21.900Z,3.30
2022-12-04T06:18:52.271Z,3.23
2022-12-04T06:21:24.150Z,3.37
2022-12-04T06:23:53.082Z,3.19
2022-12-04T06:26:22.231Z,3.13
2022-12-04T06:28:51.009Z,3.33
2022-12-04T06:31:20.354Z,3.22
2022-12-04T06:33:49.030Z,3.32
2022-12-04T06:36:19.311Z,3.37
2022-12-04T06:38:50.042Z,3.27
2022-12-04T06:41:22.050Z,3.32
2022-12-04T06:43:52.070Z,3.23
2022-12-04T06:46:22.298Z,3.32
2022-12-04T06:48:51.848Z,3.37
2022-12-04T06:51:22.990Z,3.43
2022-12-04T06:53:53.900Z,3.39
2022-12-04T06:56:24.489Z,3.33
2022-12-04T06:58:54.822Z,2.59
2022-12-04T07:01:26.179Z,3.28
2022-12-04T07:03:55.890Z,3.40
2022-12-04T07:06:27.408Z,3.33
2022-12-04T07:09:00.713Z,3.42
2022-12-04T07:11:30.201Z,3.52
2022-12-04T07:13:59.390Z,3.49
2022-12-04T07:16:31.801Z,3.58
2022-12-04T07:19:04.029Z,3.54
2022-12-04T07:21:34.992Z,3.56
2022-12-04T07:24:05.789Z,3.57
2022-12-04T07:26:34.739Z,3.67
2022-12-04T07:29:03.443Z,3.64
2022-12-04T07:31:32.377Z,3.60
2022-12-04T07:34:01.398Z,3.44
2022-12-04T07:36:29.969Z,3.66
2022-12-04T07:38:58.640Z,3.69
2022-12-04T07:41:28.909Z,3.63
2022-12-04T07:43:57.468Z,3.55
2022-12-04T07:46:28.338Z,3.77
2022-12-04T07:48:58.447Z,3.86
2022-12-04T07:51:29.147Z,3.82
2022-12-04T07:54:03.260Z,3.79
2022-12-04T07:56:34.839Z,3.74
2022-12-04T07:59:04.511Z,2.52
2022-12-04T08:01:33.971Z,3.63
2022-12-04T08:04:03.899Z,3.76
2022-12-04T08:06:35.027Z,3.63
2022-12-04T08:09:09.437Z,3.20
2022-12-04T08:11:40.460Z,3.97
2022-12-04T08:14:10.278Z,3.97
2022-12-04T08:16:39.137Z,3.98
2022-12-04T08:19:08.262Z,4.01
2022-12-04T08:21:37.011Z,3.89
2022-12-04T08:24:05.809Z,4.09
2022-12-04T08:26:35.090Z,3.86
2022-12-04T08:29:06.378Z,4.02
2022-12-04T08:31:36.616Z,4.01
2022-12-04T08:34:07.619Z,4.00
2022-12-04T08:36:37.028Z,4.03
2022-12-04T08:39:06.421Z,3.82
2022-12-04T08:41:35.214Z,4.09
2022-12-04T08:44:05.706Z,3.83
2022-12-04T08:46:34.732Z,4.01
2022-12-04T08:49:04.889Z,4.04
2022-12-04T08:51:36.060Z,4.26
2022-12-04T08:54:07.145Z,4.17
2022-12-04T08:56:37.641Z,3.88
2022-12-04T08:59:07.969Z,4.11
2022-12-04T09:01:36.913Z,4.22
2022-12-04T09:04:05.859Z,4.31
2022-12-04T09:06:34.859Z,3.56
2022-12-04T09:09:03.540Z,4.33
2022-12-04T09:11:33.161Z,4.33
2022-12-04T09:14:03.852Z,4.43
2022-12-04T09:16:34.144Z,4.22
2022-12-04T09:19:02.873Z,4.40
2022-12-04T09:21:31.558Z,4.39
2022-12-04T09:24:01.549Z,4.38
2022-12-04T09:26:31.912Z,4.41
2022-12-04T09:29:02.981Z,4.30
2022-12-04T09:31:32.346Z,4.41
2022-12-04T09:34:03.340Z,4.45
2022-12-04T09:36:32.179Z,4.54
2022-12-04T09:39:00.730Z,4.52
2022-12-04T09:42:06.849Z,4.54
2022-12-04T09:44:38.800Z,4.55
2022-12-04T09:47:13.740Z,4.51
2022-12-04T09:49:48.140Z,4.64
2022-12-04T09:52:31.220Z,4.60
2022-12-04T09:55:01.509Z,4.53
2022-12-04T09:57:38.509Z,4.44
2022-12-04T10:00:12.551Z,4.41
2022-12-04T10:02:43.031Z,4.30
2022-12-04T10:05:20.199Z,4.46
2022-12-04T10:07:57.683Z,4.53
2022-12-04T10:10:37.289Z,4.45
2022-12-04T10:13:20.969Z,3.89
2022-12-04T10:15:54.903Z,4.50
2022-12-04T10:18:35.331Z,4.55
2022-12-04T10:21:24.930Z,4.57
2022-12-04T10:24:06.793Z,3.99
2022-12-04T10:26:40.260Z,3.99
2022-12-04T10:29:17.220Z,4.46
2022-12-04T10:31:48.079Z,4.67
2022-12-04T10:34:21.420Z,4.71
2022-12-04T10:36:55.001Z,4.79
2022-12-04T10:39:28.578Z,4.69
2022-12-04T10:42:03.360Z,4.71
2022-12-04T10:44:31.920Z,4.71
2022-12-04T10:47:02.395Z,4.46
2022-12-04T10:49:32.581Z,4.77
2022-12-04T10:52:03.483Z,4.73
2022-12-04T10:54:35.069Z,4.64
2022-12-04T10:57:05.511Z,4.37
2022-12-04T10:59:34.775Z,4.62
2022-12-04T11:02:11.227Z,4.42
2022-12-04T11:04:42.194Z,4.66
2022-12-04T11:07:22.148Z,4.72
2022-12-04T11:09:58.494Z,4.76
2022-12-04T11:12:27.533Z,4.35
2022-12-04T11:15:04.053Z,4.55
2022-12-04T11:17:32.798Z,4.69
2022-12-04T11:20:03.351Z,4.52
2022-12-04T11:22:34.159Z,4.17
2022-12-04T11:25:03.450Z,4.43
2022-12-04T11:27:35.603Z,4.32
2022-12-04T11:30:09.888Z,4.56
2022-12-04T11:32:40.055Z,4.56
2022-12-04T11:35:17.671Z,4.50
2022-12-04T11:37:57.088Z,4.59
2022-12-04T11:40:28.078Z,4.48
2022-12-04T11:43:03.559Z,4.57
2022-12-04T11:45:32.720Z,4.59
2022-12-04T11:48:06.329Z,4.56
2022-12-04T11:50:44.280Z,4.58
2022-12-04T11:53:19.280Z,4.55
2022-12-04T11:56:07.721Z,4.60
2022-12-04T11:58:52.919Z,4.16
2022-12-04T12:01:38.118Z,4.62
2022-12-04T12:04:28.320Z,4.72
2022-12-04T12:07:09.051Z,4.68
2022-12-04T12:09:45.419Z,4.84
2022-12-04T12:12:21.830Z,4.83
2022-12-04T12:14:58.331Z,4.83
2022-12-04T12:17:33.782Z,4.85
2022-12-04T12:20:15.101Z,4.88
2022-12-04T12:23:03.711Z,4.61
2022-12-04T12:25:46.144Z,4.81
2022-12-04T12:28:33.178Z,4.93
2022-12-04T12:31:26.205Z,4.95
2022-12-04T12:34:00.838Z,5.02
2022-12-04T12:36:41.267Z,5.09
2022-12-04T12:39:19.183Z,5.00
2022-12-04T12:41:53.940Z,4.94
2022-12-04T12:44:27.829Z,4.92
2022-12-04T12:47:01.180Z,4.93
2022-12-04T12:49:33.483Z,4.74
2022-12-04T12:52:06.979Z,4.93
2022-12-04T12:54:44.538Z,4.94
2022-12-04T12:57:18.808Z,4.92
2022-12-04T12:59:51.118Z,4.91
2022-12-04T13:02:27.144Z,4.92
2022-12-04T13:04:59.427Z,5.00
2022-12-04T13:07:34.565Z,5.10
2022-12-04T13:10:09.340Z,5.07
2022-12-04T13:12:45.719Z,4.95
2022-12-04T13:15:17.640Z,4.92
2022-12-04T13:17:48.039Z,4.92
2022-12-04T13:20:21.776Z,4.92
2022-12-04T13:23:06.804Z,4.89
2022-12-04T13:25:51.731Z,4.68
2022-12-04T13:28:37.670Z,4.92
2022-12-04T13:31:19.383Z,4.98
2022-12-04T13:34:12.079Z,5.00
2022-12-04T13:36:58.359Z,4.85
2022-12-04T13:39:48.279Z,4.96
2022-12-04T13:42:25.809Z,4.68
2022-12-04T13:44:58.975Z,4.89
2022-12-04T13:47:31.898Z,4.89
2022-12-04T13:50:29.690Z,4.87
2022-12-04T13:52:58.613Z,4.85
2022-12-04T13:55:33.499Z,4.91
2022-12-04T13:58:05.011Z,4.88
2022-12-04T14:00:36.791Z,4.83
2022-12-04T14:03:08.635Z,4.78
2022-12-04T14:05:43.063Z,4.83
2022-12-04T14:08:25.876Z,4.84
2022-12-04T14:11:03.847Z,4.87
2022-12-04T14:13:44.758Z,4.92
2022-12-04T14:16:27.260Z,4.90
2022-12-04T14:18:58.099Z,5.06
2022-12-04T14:21:27.116Z,4.91
2022-12-04T14:23:55.919Z,4.94
2022-12-04T14:26:48.977Z,4.87
2022-12-04T14:29:36.509Z,4.86
2022-12-04T14:32:15.754Z,4.84
2022-12-04T14:34:44.698Z,4.65
2022-12-04T14:37:23.510Z,4.87
2022-12-04T14:39:53.559Z,4.90
2022-12-04T14:42:26.869Z,4.80
2022-12-04T14:44:58.315Z,4.75
2022-12-04T14:47:42.582Z,4.87
2022-12-04T14:50:25.031Z,4.85
2022-12-04T14:53:00.539Z,4.88
2022-12-04T14:55:37.314Z,4.85
2022-12-04T14:58:28.019Z,4.75
2022-12-04T15:00:58.640Z,4.69
2022-12-04T15:03:31.647Z,4.67
2022-12-04T15:06:05.639Z,4.69
2022-12-04T15:08:35.149Z,4.21
2022-12-04T15:11:24.970Z,4.61
2022-12-04T15:13:53.750Z,3.61
2022-12-04T15:16:25.310Z,4.56
2022-12-04T15:18:59.561Z,4.57
2022-12-04T15:21:38.009Z,4.66
2022-12-04T15:24:10.479Z,4.58
2022-12-04T15:26:40.418Z,4.69
2022-12-04T15:29:11.059Z,4.68
2022-12-04T15:31:47.199Z,4.64
2022-12-04T15:34:21.279Z,4.54
2022-12-04T15:36:52.539Z,4.50
2022-12-04T15:39:24.019Z,4.51
2022-12-04T15:41:52.863Z,4.53
2022-12-04T15:44:28.153Z,4.65
2022-12-04T15:46:59.775Z,4.62
2022-12-04T15:49:31.641Z,4.58
2022-12-04T15:52:09.581Z,4.55
2022-12-04T15:54:39.199Z,4.48
2022-12-04T15:57:18.799Z,4.53
2022-12-04T15:59:51.429Z,4.49
2022-12-04T16:02:26.278Z,4.58
2022-12-04T16:04:56.689Z,4.53
2022-12-04T16:07:28.378Z,4.30
2022-12-04T16:10:03.280Z,4.46
2022-12-04T16:12:33.851Z,4.47
2022-12-04T16:15:02.620Z,4.49
2022-12-04T16:17:33.165Z,4.49
2022-12-04T16:20:07.068Z,4.49
2022-12-04T16:22:35.744Z,4.47
2022-12-04T16:25:04.339Z,4.44
2022-12-04T16:27:33.059Z,4.55
2022-12-04T16:30:02.052Z,4.54
2022-12-04T16:32:33.366Z,4.54
2022-12-04T16:35:04.249Z,4.52
2022-12-04T16:37:32.920Z,4.45
2022-12-04T16:40:06.689Z,4.53
2022-12-04T16:42:36.248Z,4.70
2022-12-04T16:45:05.659Z,4.52
2022-12-04T16:47:34.129Z,4.68
2022-12-04T16:50:04.829Z,4.56
2022-12-04T16:52:33.466Z,4.62
2022-12-04T16:55:05.284Z,4.61
2022-12-04T16:57:34.271Z,4.46
2022-12-04T17:00:02.936Z,4.48
2022-12-04T17:02:32.419Z,4.46
2022-12-04T17:05:01.203Z,4.47
2022-12-04T17:07:31.604Z,4.51
2022-12-04T17:10:00.354Z,4.40
2022-12-04T17:12:29.011Z,4.45
2022-12-04T17:14:57.807Z,4.38
2022-12-04T17:17:26.549Z,4.45
2022-12-04T17:19:55.109Z,4.37
2022-12-04T17:22:26.561Z,4.48
2022-12-04T17:24:57.832Z,4.37
2022-12-04T17:27:27.319Z,4.42
2022-12-04T17:29:56.299Z,4.18
2022-12-04T17:32:27.539Z,4.22
2022-12-04T17:34:57.294Z,4.19
2022-12-04T17:37:26.460Z,4.15
2022-12-04T17:39:56.620Z,4.06
2022-12-04T17:42:25.566Z,3.99
2022-12-04T17:44:54.410Z,3.95
2022-12-04T17:47:23.209Z,3.95
2022-12-04T17:49:51.859Z,3.97
2022-12-04T17:52:22.810Z,3.54
2022-12-04T17:54:51.910Z,3.88
2022-12-04T17:57:22.659Z,3.92
2022-12-04T17:59:51.370Z,4.03
2022-12-04T18:02:20.220Z,3.82
2022-12-04T18:04:48.950Z,3.89
2022-12-04T18:07:17.763Z,4.11
2022-12-04T18:09:46.370Z,4.06
2022-12-04T18:12:17.725Z,4.05
2022-12-04T18:14:47.939Z,4.09
2022-12-04T18:17:17.824Z,3.99
2022-12-04T18:19:46.449Z,3.92
2022-12-04T18:22:15.349Z,3.92
2022-12-04T18:24:43.760Z,4.08
2022-12-04T18:27:12.789Z,3.99
2022-12-04T18:29:41.570Z,3.96
2022-12-04T18:32:11.650Z,3.99
2022-12-04T18:34:40.240Z,4.06
2022-12-04T18:37:09.070Z,4.00
2022-12-04T18:39:37.592Z,3.99
2022-12-04T18:42:06.571Z,3.85
2022-12-04T18:44:35.151Z,4.00
2022-12-04T18:47:03.801Z,3.98
2022-12-04T18:49:34.273Z,3.91
2022-12-04T18:52:02.921Z,3.86
2022-12-04T18:54:31.631Z,3.81
2022-12-04T18:57:00.310Z,3.77
2022-12-04T18:59:29.392Z,3.91
2022-12-04T19:01:58.085Z,3.89
2022-12-04T19:04:27.381Z,3.88
2022-12-04T19:06:58.130Z,3.73
2022-12-04T19:12:19.479Z,3.58
2022-12-04T19:14:48.346Z,3.79
2022-12-04T19:17:17.283Z,3.91
2022-12-04T19:19:45.869Z,3.91
2022-12-04T19:22:16.180Z,3.82
2022-12-04T19:24:45.031Z,3.92
2022-12-04T19:27:13.800Z,3.90
2022-12-04T19:29:44.483Z,3.86
2022-12-04T19:32:13.624Z,3.85
2022-12-04T19:34:42.392Z,3.66
2022-12-04T19:37:11.178Z,3.76
2022-12-04T19:39:41.439Z,3.64
2022-12-04T19:42:10.500Z,3.63
2022-12-04T19:44:48.523Z,3.62
2022-12-04T19:47:18.129Z,3.73
2022-12-04T19:49:46.740Z,3.78
2022-12-04T19:52:15.830Z,3.84
2022-12-04T19:54:46.319Z,3.78
2022-12-04T19:57:15.269Z,3.92
2022-12-04T19:59:46.634Z,3.89
2022-12-04T20:02:15.849Z,3.88
2022-12-04T20:04:44.832Z,3.88
2022-12-04T20:07:13.676Z,3.95
2022-12-04T20:09:46.013Z,3.74
2022-12-04T20:12:17.641Z,3.84
2022-12-04T20:14:46.409Z,3.58
2022-12-04T20:17:15.134Z,3.87
2022-12-04T20:19:43.878Z,3.88
2022-12-04T20:22:12.642Z,3.88
2022-12-04T20:24:41.129Z,3.86
2022-12-04T20:27:18.842Z,3.74
2022-12-04T20:29:49.909Z,3.76
2022-12-04T20:32:19.080Z,3.74
2022-12-04T20:34:48.009Z,3.54
2022-12-04T20:37:16.720Z,3.70
2022-12-04T20:39:47.048Z,3.79
2022-12-04T20:42:17.195Z,3.75
2022-12-04T20:44:45.722Z,3.74
2022-12-04T20:47:16.219Z,3.82
2022-12-04T20:49:44.869Z,3.79
2022-12-04T20:52:13.449Z,3.73
2022-12-04T20:54:42.008Z,3.66
2022-12-04T20:57:11.011Z,3.46
2022-12-04T20:59:39.652Z,3.51
2022-12-04T21:02:08.319Z,3.61
2022-12-04T21:04:40.056Z,3.69
2022-12-04T21:07:08.729Z,3.42
2022-12-04T21:09:37.509Z,3.65
2022-12-04T21:12:27.718Z,3.39
2022-12-04T21:15:13.709Z,3.55
2022-12-04T21:17:42.136Z,3.61
2022-12-04T21:20:13.181Z,3.47
2022-12-04T21:22:41.752Z,3.48
2022-12-04T21:25:10.879Z,3.62
2022-12-04T21:27:39.600Z,3.64
2022-12-04T21:30:09.669Z,3.72
2022-12-04T21:32:40.019Z,3.70
2022-12-04T21:35:08.852Z,3.69
2022-12-04T21:37:38.860Z,3.70
2022-12-04T21:40:09.041Z,3.70
2022-12-04T21:42:39.011Z,3.71
2022-12-04T21:45:09.159Z,3.71
2022-12-04T21:47:38.249Z,3.75
2022-12-04T21:50:08.310Z,3.66
2022-12-04T21:52:37.030Z,2.82
2022-12-04T21:55:07.640Z,3.40
2022-12-04T21:57:36.299Z,3.56
2022-12-04T22:00:05.960Z,3.66
2022-12-04T22:02:36.558Z,3.69
2022-12-04T22:05:05.458Z,3.66
2022-12-04T22:07:34.923Z,3.79
2022-12-04T22:10:10.044Z,3.44
2022-12-04T22:12:49.902Z,3.80
2022-12-04T22:15:18.587Z,3.90
2022-12-04T22:17:46.883Z,3.69
2022-12-04T22:20:16.308Z,3.67
2022-12-04T22:22:44.588Z,3.71
2022-12-04T22:25:14.360Z,3.65
2022-12-04T22:27:43.911Z,3.59
2022-12-04T22:30:13.674Z,3.62
2022-12-04T22:32:41.796Z,3.54
2022-12-04T22:35:10.746Z,3.57
2022-12-04T22:37:44.106Z,3.55
2022-12-04T22:40:14.161Z,2.54
2022-12-04T22:42:44.142Z,3.55
2022-12-04T22:45:12.862Z,3.54
2022-12-04T22:47:40.941Z,3.53
2022-12-04T22:50:10.364Z,3.42
2022-12-04T22:52:38.486Z,3.56
2022-12-04T22:55:07.141Z,3.64
2022-12-04T22:57:36.159Z,3.66
2022-12-04T23:00:08.064Z,3.69
2022-12-04T23:02:36.400Z,3.22
2022-12-04T23:05:05.013Z,3.66
2022-12-04T23:07:33.281Z,3.39
2022-12-04T23:10:01.514Z,3.55
2022-12-04T23:12:29.851Z,3.54
2022-12-04T23:14:58.087Z,3.61
2022-12-04T23:17:27.673Z,3.61
2022-12-04T23:19:56.004Z,3.47
2022-12-04T23:22:25.277Z,3.47
2022-12-04T23:24:53.407Z,3.65
2022-12-04T23:27:21.599Z,3.66
2022-12-04T23:29:53.868Z,3.65
2022-12-04T23:32:22.256Z,3.73
2022-12-04T23:34:53.182Z,3.68
2022-12-04T23:37:21.372Z,3.61
2022-12-04T23:39:49.479Z,3.48
2022-12-04T23:42:17.625Z,3.61
2022-12-04T23:44:45.775Z,3.63
2022-12-04T23:47:14.057Z,3.59
2022-12-04T23:49:42.233Z,3.61
2022-12-04T23:52:11.905Z,3.63
2022-12-04T23:54:39.995Z,3.64
2022-12-04T23:57:08.554Z,3.04
2022-12-04T23:59:36.639Z,3.72
